Share

Atka, AK

5:12 AM HADT on April 24, 2014 (GMT -0900)
Atka (PAAK) Elev 56 ft | 52.22 °N, 174.21 °W | Change Station

Current weather conditions updated 2 hours ago

Overcast
Overcast
37 °F
Feels Like 28 °F
N
16
Wind Variable Wind from East
Gusts 21 mph
Sunrise 7:19 AM
Sunset 9:51 PM
Moon Waning Crescent

Today is forecast to be nearly the same temperature as yesterday. Mix of rain and snow.

Pressure 29.23 in
Visibility 10.0 miles
Clouds Few 2000 ft
Mostly Cloudy 2900 ft
Overcast 4500 ft
Windchill 28 °F
Dew Point 30 °F
Humidity 75%
Rainfall 0.00 in
Snow Depth Not available.
UV 0 out of 16
Pollen Not available.
Air Quality Not available.
Flu Activity Sporadic
METAR PAAK 241136Z 10014G18KT 10SM FEW020 BKN029 OVC045 03/M01 A2923 RMK AO1

More Conditions Fewer Conditions

Pressure 29.23 in
Visibility 10.0 miles
Clouds Few 2000 ft
Mostly Cloudy 2900 ft
Overcast 4500 ft
Windchill 28 °F
Dew Point 30 °F
Humidity 75%
Rainfall 0.00 in
Snow Depth Not available.
UV 0 out of 16
Pollen Not available.
Air Quality Not available.
Flu Activity Sporadic
METAR PAAK 241136Z 10014G18KT 10SM FEW020 BKN029 OVC045 03/M01 A2923 RMK AO1

More Conditions Fewer Conditions

10-Day Weather Forecast

Almanac

Astronomy

Apr. 24, 2014 Rise Set
Actual Time 7:19 AM HADT 9:51 PM HADT
Civil Twilight 6:42 AM HADT 10:28 PM HADT
Nautical Twilight 5:54 AM HADT 11:17 PM HADT
Astronomical Twilight 4:56 AM HADT 12:15 AM HADT
Moon 5:16 AM HADT 4:48 PM HADT
Length of Visible Light 15h 46m
Length of Day
14h 31m
Tomorrow will be 3m 46s longer.
Waning Crescent, 25% of the Moon is Illuminated
Today
Waning Crescent
Apr 29
New
May 6
First Quarter
May 14
Full
May 21
Last Quarter

Today's Extremes

State Highs State Lows

Community

  • Clouds mov'n in
    Clouds mov'n in
  • Stacked
    Stacked
  • clouds approaching Red Sox Nation
    clouds approaching Red Sox Nation
  • Balance
    Balance
  • Citysky
    Citysky

WunderPhotos

Upload Photos

1,704,619 photos uploaded!

Nearby

Snow Depth

Station Depth Elevation
Rocky Point 1 in 500 ft
Pargon Creek 0 in 300 ft
Port Graham 2 in 300 ft
Mcneil Canyon 3 in 1320 ft
MF Bradley River 17 in 2300 ft

Coastal Water Temperatures

Place Temperature
No Stations Reporting

Earthquake Activity

City Distance Mag. Time & Date
No recent earthquake activity has been reported nearby.
Minimum magnitude displayed is 2.5.

Nearby Weather Stations

There are no personal weather stations in this area.

What do you think?

We're not finished. Please let us know what you like, what you don't like, and what you are still missing.